createdAt,value
2019-02-06T00:00:36.058Z,99356.33
2019-02-06T00:03:07.524Z,99359.95
2019-02-06T00:05:38.560Z,99362.51
2019-02-06T00:08:09.906Z,99366.41
2019-02-06T00:10:41.003Z,99365.13
2019-02-06T00:13:11.960Z,99360.83
2019-02-06T00:15:43.004Z,99362.05
2019-02-06T00:18:14.386Z,99362.23
2019-02-06T00:20:45.382Z,99357.16
2019-02-06T00:23:16.478Z,99356.76
2019-02-06T00:25:47.472Z,99356.99
2019-02-06T00:28:18.503Z,99358.25
2019-02-06T00:30:50.067Z,99355.88
2019-02-06T00:33:21.166Z,99363.17
2019-02-06T00:35:52.403Z,99359.87
2019-02-06T00:38:23.487Z,99357.11
2019-02-06T00:40:54.511Z,99361.95
2019-02-06T00:43:25.914Z,99362.41
2019-02-06T00:45:57.103Z,99357.05
2019-02-06T00:48:28.197Z,99353.91
2019-02-06T00:50:59.198Z,99349.97
2019-02-06T00:53:30.248Z,99348.56
2019-02-06T00:56:01.404Z,99350.76
2019-02-06T00:58:32.443Z,99357.67
2019-02-06T01:01:05.961Z,99349.91
2019-02-06T01:03:36.937Z,99351.97
2019-02-06T01:06:08.079Z,99352.27
2019-02-06T01:08:39.250Z,99344.98
2019-02-06T01:11:10.463Z,99344.41
2019-02-06T01:13:41.341Z,99352.43
2019-02-06T01:16:12.449Z,99349.02
2019-02-06T01:18:43.429Z,99346.93
2019-02-06T01:21:14.511Z,99346.88
2019-02-06T01:23:45.980Z,99356.66
2019-02-06T01:26:16.991Z,99358.02
2019-02-06T01:28:48.131Z,99357.61
2019-02-06T01:31:20.577Z,99359.57
2019-02-06T01:33:51.535Z,99356.16
2019-02-06T01:36:22.744Z,99356.61
2019-02-06T01:38:53.657Z,99359.97
2019-02-06T01:41:24.624Z,99360.03
2019-02-06T01:43:55.699Z,99352.39
2019-02-06T01:46:26.753Z,99357.89
2019-02-06T01:48:57.935Z,99352.19
2019-02-06T01:51:29.253Z,99353.48
2019-02-06T01:54:00.186Z,99354.82
2019-02-06T01:56:31.162Z,99346.69
2019-02-06T01:59:02.227Z,99348.39
2019-02-06T02:01:33.173Z,99340.01
2019-02-06T02:04:04.693Z,99337.81
2019-02-06T02:06:35.761Z,99339.74
2019-02-06T02:09:09.872Z,99335.40
2019-02-06T02:11:40.911Z,99335.06
2019-02-06T02:14:12.025Z,99330.58
2019-02-06T02:16:43.064Z,99323.12
2019-02-06T02:19:14.565Z,99322.39
2019-02-06T02:21:45.845Z,99326.47
2019-02-06T02:24:17.081Z,99322.33
2019-02-06T02:26:48.177Z,99329.76
2019-02-06T02:29:19.211Z,99324.95
2019-02-06T02:31:50.466Z,99326.81
2019-02-06T02:34:21.533Z,99321.46
2019-02-06T02:36:52.452Z,99319.64
2019-02-06T02:39:23.346Z,99315.91
2019-02-06T02:41:54.393Z,99315.91
2019-02-06T02:44:25.464Z,99308.22
2019-02-06T02:46:56.719Z,99302.64
2019-02-06T02:49:27.738Z,99290.54
2019-02-06T02:51:58.799Z,99290.14
2019-02-06T02:54:29.863Z,99290.45
2019-02-06T02:57:01.178Z,99297.16
2019-02-06T02:59:32.260Z,99298.78
2019-02-06T03:02:04.942Z,99294.50
2019-02-06T03:04:35.980Z,99298.84
2019-02-06T03:07:07.241Z,99303.98
2019-02-06T03:09:38.753Z,99308.88
2019-02-06T03:12:09.721Z,99305.26
2019-02-06T03:14:40.758Z,99302.05
2019-02-06T03:17:11.768Z,99306.99
2019-02-06T03:19:42.862Z,99305.45
2019-02-06T03:22:13.840Z,99302.33
2019-02-06T03:24:44.768Z,99303.51
2019-02-06T03:27:15.735Z,99294.63
2019-02-06T03:29:46.781Z,99295.50
2019-02-06T03:32:17.911Z,99303.85
2019-02-06T03:34:48.901Z,99301.50
2019-02-06T03:37:19.863Z,99297.41
2019-02-06T03:39:50.923Z,99298.63
2019-02-06T03:42:21.975Z,99292.35
2019-02-06T03:44:53.230Z,99294.47
2019-02-06T03:47:24.260Z,99292.94
2019-02-06T03:49:55.622Z,99297.75
2019-02-06T03:52:26.623Z,99302.86
2019-02-06T03:54:57.738Z,99302.40
2019-02-06T03:57:28.686Z,99300.16
2019-02-06T03:59:59.871Z,99299.52
2019-02-06T04:02:30.938Z,99305.65
2019-02-06T04:05:02.046Z,99308.35
2019-02-06T04:07:33.047Z,99308.88
2019-02-06T04:10:06.371Z,99307.39
2019-02-06T04:12:37.550Z,99314.81
2019-02-06T04:15:09.782Z,99305.25
2019-02-06T04:17:40.861Z,99310.66
2019-02-06T04:20:18.080Z,99312.73
2019-02-06T04:22:49.174Z,99308.80
2019-02-06T04:25:20.215Z,99308.30
2019-02-06T04:27:51.615Z,99298.13
2019-02-06T04:30:22.603Z,99302.63
2019-02-06T04:32:53.545Z,99296.95
2019-02-06T04:35:24.611Z,99299.15
2019-02-06T04:37:55.741Z,99297.35
2019-02-06T04:40:26.854Z,99297.54
2019-02-06T04:42:57.916Z,99306.31
2019-02-06T04:45:28.995Z,99303.09
2019-02-06T04:47:59.988Z,99308.52
2019-02-06T04:50:31.248Z,99303.36
2019-02-06T04:53:02.285Z,99305.10
2019-02-06T04:55:33.543Z,99312.23
2019-02-06T04:58:04.999Z,99299.55
2019-02-06T05:00:36.099Z,99293.45
2019-02-06T05:03:07.099Z,99290.99
2019-02-06T05:05:38.258Z,99286.56
2019-02-06T05:08:11.307Z,99291.24
2019-02-06T05:10:42.451Z,99286.56
2019-02-06T05:13:13.505Z,99289.23
2019-02-06T05:15:44.579Z,99289.04
2019-02-06T05:18:15.741Z,99292.64
2019-02-06T05:20:46.864Z,99300.94
2019-02-06T05:23:17.805Z,99289.00
2019-02-06T05:25:49.095Z,99289.41
2019-02-06T05:28:20.063Z,99286.87
2019-02-06T05:30:51.003Z,99278.55
2019-02-06T05:33:21.977Z,99284.31
2019-02-06T05:35:53.253Z,99286.30
2019-02-06T05:38:24.221Z,99283.63
2019-02-06T05:40:55.399Z,99288.18
2019-02-06T05:43:26.449Z,99287.28
2019-02-06T05:45:57.421Z,99283.91
2019-02-06T05:48:28.477Z,99289.23
2019-02-06T05:50:59.579Z,99291.08
2019-02-06T05:53:30.591Z,99281.50
2019-02-06T05:56:01.611Z,99280.81
2019-02-06T05:58:32.896Z,99278.95
2019-02-06T06:01:04.310Z,99280.56
2019-02-06T06:03:35.546Z,99279.42
2019-02-06T06:06:06.795Z,99277.96
2019-02-06T06:08:37.899Z,99277.37
2019-02-06T06:11:08.875Z,99270.63
2019-02-06T06:13:39.911Z,99272.02
2019-02-06T06:16:14.037Z,99270.41
2019-02-06T06:18:45.066Z,99280.33
2019-02-06T06:21:16.085Z,99274.38
2019-02-06T06:23:47.115Z,99276.64
2019-02-06T06:26:18.029Z,99273.32
2019-02-06T06:28:49.205Z,99275.18
2019-02-06T06:31:20.706Z,99276.55
2019-02-06T06:33:51.612Z,99276.61
2019-02-06T06:36:22.669Z,99272.64
2019-02-06T06:38:53.670Z,99279.61
2019-02-06T06:41:24.595Z,99279.73
2019-02-06T06:43:56.003Z,99284.48
2019-02-06T06:46:27.074Z,99283.43
2019-02-06T06:48:58.349Z,99286.22
2019-02-06T06:51:29.447Z,99279.67
2019-02-06T06:54:00.436Z,99277.53
2019-02-06T06:56:31.402Z,99278.50
2019-02-06T06:59:02.491Z,99288.73
2019-02-06T07:01:33.386Z,99286.77
2019-02-06T07:04:04.450Z,99288.45
2019-02-06T07:06:35.516Z,99283.63
2019-02-06T07:09:08.654Z,99287.66
2019-02-06T07:11:39.703Z,99277.55
2019-02-06T07:14:10.744Z,99284.09
2019-02-06T07:16:42.126Z,99287.20
2019-02-06T07:19:13.068Z,99291.73
2019-02-06T07:21:44.178Z,99302.58
2019-02-06T07:24:15.449Z,99299.23
2019-02-06T07:26:49.108Z,99301.92
2019-02-06T07:29:20.071Z,99308.28
2019-02-06T07:31:51.073Z,99308.48
2019-02-06T07:34:22.146Z,99305.38
2019-02-06T07:36:53.350Z,99309.80
2019-02-06T07:39:24.536Z,99303.09
2019-02-06T07:41:55.417Z,99296.19
2019-02-06T07:44:26.328Z,99299.08
2019-02-06T07:46:57.250Z,99298.92
2019-02-06T07:49:28.536Z,99301.73
2019-02-06T07:51:59.562Z,99309.58
2019-02-06T07:54:30.537Z,99308.42
2019-02-06T07:57:01.568Z,99311.05
2019-02-06T07:59:32.683Z,99310.45
2019-02-06T08:02:03.745Z,99311.20
2019-02-06T08:04:34.725Z,99314.61
2019-02-06T08:07:05.855Z,99315.88
2019-02-06T08:09:37.106Z,99307.61
2019-02-06T08:12:08.058Z,99311.16
2019-02-06T08:14:39.134Z,99313.02
2019-02-06T08:17:10.421Z,99306.32
2019-02-06T08:19:41.513Z,99305.51
2019-02-06T08:22:12.582Z,99315.25
2019-02-06T08:24:43.621Z,99314.82
2019-02-06T08:27:14.588Z,99313.67
2019-02-06T08:29:45.707Z,99308.66
2019-02-06T08:32:19.473Z,99307.23
2019-02-06T08:34:50.745Z,99308.85
2019-02-06T08:37:22.240Z,99312.48
2019-02-06T08:39:53.280Z,99311.21
2019-02-06T08:42:24.357Z,99325.05
2019-02-06T08:44:55.387Z,99312.54
2019-02-06T08:47:26.463Z,99301.09
2019-02-06T08:49:57.421Z,99302.08
2019-02-06T08:52:28.544Z,99292.13
2019-02-06T08:54:59.545Z,99297.44
2019-02-06T08:57:30.649Z,99293.27
2019-02-06T09:00:01.532Z,99290.66
2019-02-06T09:02:32.912Z,99288.60
2019-02-06T09:05:07.643Z,99296.47
2019-02-06T09:07:38.339Z,99295.19
2019-02-06T09:10:13.424Z,99295.14
2019-02-06T09:12:44.577Z,99303.78
2019-02-06T09:15:15.959Z,99307.60
2019-02-06T09:17:47.145Z,99316.12
2019-02-06T09:20:20.508Z,99313.47
2019-02-06T09:22:51.814Z,99308.98
2019-02-06T09:25:26.946Z,99299.03
2019-02-06T09:27:57.997Z,99297.94
2019-02-06T09:30:34.201Z,99292.94
2019-02-06T09:33:05.757Z,99293.91
2019-02-06T09:35:36.809Z,99287.59
2019-02-06T09:38:07.912Z,99288.03
2019-02-06T09:40:38.883Z,99295.30
2019-02-06T09:43:09.861Z,99301.42
2019-02-06T09:45:40.826Z,99293.86
2019-02-06T09:48:11.862Z,99296.22
2019-02-06T09:50:42.895Z,99299.90
2019-02-06T09:53:13.851Z,99304.13
2019-02-06T09:55:44.874Z,99301.92
2019-02-06T09:58:15.902Z,99301.22
2019-02-06T10:00:48.851Z,99301.72
2019-02-06T10:03:19.731Z,99294.52
2019-02-06T10:05:50.789Z,99300.75
2019-02-06T10:08:21.781Z,99298.63
2019-02-06T10:10:52.885Z,99297.70
2019-02-06T10:13:23.712Z,99301.22
2019-02-06T10:15:54.686Z,99294.91
2019-02-06T10:18:25.769Z,99301.78
2019-02-06T10:20:56.837Z,99301.88
2019-02-06T10:23:27.930Z,99298.55
2019-02-06T10:25:58.888Z,99290.03
2019-02-06T10:28:30.351Z,99286.63
2019-02-06T10:31:01.537Z,99282.80
2019-02-06T10:33:32.503Z,99280.41
2019-02-06T10:36:03.473Z,99279.95
2019-02-06T10:38:34.453Z,99278.70
2019-02-06T10:41:05.784Z,99289.44
2019-02-06T10:43:36.981Z,99274.41
2019-02-06T10:46:08.019Z,99272.67
2019-02-06T10:48:38.963Z,99269.61
2019-02-06T10:51:10.214Z,99265.04
2019-02-06T10:53:41.737Z,99260.33
2019-02-06T10:56:12.819Z,99251.11
2019-02-06T10:58:43.793Z,99252.72
2019-02-06T11:01:14.698Z,99249.36
2019-02-06T11:03:45.629Z,99245.83
2019-02-06T11:06:16.689Z,99246.55
2019-02-06T11:08:47.615Z,99243.18
2019-02-06T11:11:18.651Z,99242.62
2019-02-06T11:13:49.988Z,99236.80
2019-02-06T11:16:21.489Z,99235.43
2019-02-06T11:18:52.436Z,99230.50
2019-02-06T11:21:23.644Z,99224.91
2019-02-06T11:23:54.593Z,99215.77
2019-02-06T11:26:26.007Z,99207.83
2019-02-06T11:28:56.908Z,99201.95
2019-02-06T11:31:27.878Z,99196.50
2019-02-06T11:33:59.319Z,99180.38
2019-02-06T11:36:30.453Z,99178.66
2019-02-06T11:39:01.403Z,99180.03
2019-02-06T11:41:32.579Z,99180.72
2019-02-06T11:44:04.223Z,99172.41
2019-02-06T11:46:35.178Z,99182.50
2019-02-06T11:49:07.021Z,99166.50
2019-02-06T11:51:40.856Z,99171.76
2019-02-06T11:54:13.132Z,99160.97
2019-02-06T11:56:44.283Z,99157.73
2019-02-06T11:59:15.531Z,99161.64
2019-02-06T12:01:46.654Z,99148.83
2019-02-06T12:04:17.913Z,99146.51
2019-02-06T12:06:49.012Z,99144.23
2019-02-06T12:09:20.058Z,99139.45
2019-02-06T12:11:51.015Z,99139.37
2019-02-06T12:14:22.008Z,99141.64
2019-02-06T12:16:53.180Z,99132.59
2019-02-06T12:19:24.227Z,99122.95
2019-02-06T12:21:55.287Z,99125.66
2019-02-06T12:24:32.002Z,99109.86
2019-02-06T12:27:03.057Z,99108.16
2019-02-06T12:29:34.016Z,99106.36
2019-02-06T12:32:05.560Z,99104.20
2019-02-06T12:34:36.518Z,99091.77
2019-02-06T12:37:07.414Z,99085.70
2019-02-06T12:39:38.848Z,99085.55
2019-02-06T12:42:10.386Z,99080.41
2019-02-06T12:44:42.798Z,99075.36
2019-02-06T12:47:14.380Z,99066.30
2019-02-06T12:49:45.552Z,99066.44
2019-02-06T12:52:16.635Z,99064.20
2019-02-06T12:54:48.248Z,99052.36
2019-02-06T12:57:19.285Z,99057.06
2019-02-06T12:59:50.243Z,99046.14
2019-02-06T13:02:21.431Z,99045.64
2019-02-06T13:04:54.070Z,99042.17
2019-02-06T13:07:25.120Z,99037.57
2019-02-06T13:09:56.165Z,99043.70
2019-02-06T13:12:27.432Z,99033.91
2019-02-06T13:14:58.854Z,99025.38
2019-02-06T13:17:29.868Z,99025.80
2019-02-06T13:20:00.974Z,99019.84
2019-02-06T13:22:34.052Z,99016.70
2019-02-06T13:25:07.856Z,99011.97
2019-02-06T13:27:38.800Z,99010.16
2019-02-06T13:30:21.469Z,99005.36
2019-02-06T13:32:52.842Z,99005.59
2019-02-06T13:35:23.897Z,99000.40
2019-02-06T13:37:54.993Z,99003.98
2019-02-06T13:40:29.901Z,99004.16
2019-02-06T13:43:01.041Z,98998.61
2019-02-06T13:45:43.581Z,98988.13
2019-02-06T13:48:14.622Z,98980.22
2019-02-06T13:50:47.413Z,98980.13
2019-02-06T13:53:18.441Z,98978.89
2019-02-06T13:55:49.855Z,98978.78
2019-02-06T13:58:21.001Z,98981.16
2019-02-06T14:00:52.641Z,98980.56
2019-02-06T14:03:23.756Z,98983.82
2019-02-06T14:05:54.912Z,98978.42
2019-02-06T14:08:28.611Z,98985.42
2019-02-06T14:11:00.841Z,98984.63
2019-02-06T14:13:32.172Z,98983.02
2019-02-06T14:16:03.623Z,98974.40
2019-02-06T14:18:34.684Z,98971.59
2019-02-06T14:21:05.861Z,98963.06
2019-02-06T14:23:39.817Z,98964.53
2019-02-06T14:26:16.338Z,98959.30
2019-02-06T14:29:11.007Z,98957.73
2019-02-06T14:31:56.221Z,98962.02
2019-02-06T14:34:41.993Z,98950.89
2019-02-06T14:37:27.674Z,98947.00
2019-02-06T14:40:01.451Z,98934.32
2019-02-06T14:42:41.022Z,98934.83
2019-02-06T14:45:27.345Z,98935.05
2019-02-06T14:48:07.103Z,98930.74
2019-02-06T14:51:00.383Z,98927.69
2019-02-06T14:53:49.397Z,98931.60
2019-02-06T14:56:26.367Z,98921.30
2019-02-06T14:59:20.518Z,98925.19
2019-02-06T15:02:12.651Z,98917.00
2019-02-06T15:04:55.367Z,98907.98
2019-02-06T15:07:35.189Z,98914.31
2019-02-06T15:10:29.054Z,98905.73
2019-02-06T15:13:21.215Z,98913.55
2019-02-06T15:16:04.082Z,98901.55
2019-02-06T15:18:38.093Z,98904.81
2019-02-06T15:21:39.522Z,98901.42
2019-02-06T15:24:38.071Z,98902.47
2019-02-06T15:27:33.026Z,98897.36
2019-02-06T15:30:20.033Z,98896.74
2019-02-06T15:33:08.545Z,98896.31
2019-02-06T15:35:45.663Z,98893.77
2019-02-06T15:38:46.669Z,98903.01
2019-02-06T15:41:31.311Z,98896.37
2019-02-06T15:44:05.431Z,98898.05
2019-02-06T15:46:42.430Z,98893.02
2019-02-06T15:49:33.221Z,98895.85
2019-02-06T15:52:18.987Z,98895.47
2019-02-06T15:54:58.769Z,98892.88
2019-02-06T15:57:41.504Z,98886.66
2019-02-06T16:00:27.572Z,98880.08
2019-02-06T16:03:07.618Z,98885.80
2019-02-06T16:05:59.424Z,98888.58
2019-02-06T16:08:42.321Z,98894.42
2019-02-06T16:11:27.864Z,98893.84
2019-02-06T16:14:07.339Z,98897.53
2019-02-06T16:16:44.271Z,98887.97
2019-02-06T16:19:47.670Z,98886.20
2019-02-06T16:22:33.743Z,98892.03
2019-02-06T16:25:07.714Z,98892.27
2019-02-06T16:27:44.245Z,98889.11
2019-02-06T16:30:24.152Z,98890.69
2019-02-06T16:33:19.550Z,98884.64
2019-02-06T16:35:56.323Z,98895.68
2019-02-06T16:38:33.157Z,98889.59
2019-02-06T16:41:25.190Z,98880.91
2019-02-06T16:44:02.148Z,98882.08
2019-02-06T16:46:36.114Z,98884.05
2019-02-06T16:49:16.370Z,98884.38
2019-02-06T16:51:59.373Z,98886.94
2019-02-06T16:54:45.159Z,98878.30
2019-02-06T16:57:33.526Z,98879.00
2019-02-06T17:00:19.080Z,98878.42
2019-02-06T17:02:53.432Z,98869.03
2019-02-06T17:05:36.765Z,98868.05
2019-02-06T17:08:10.747Z,98868.41
2019-02-06T17:11:06.750Z,98866.97
2019-02-06T17:13:57.040Z,98865.53
2019-02-06T17:16:49.484Z,98856.06
2019-02-06T17:19:29.226Z,98860.66
2019-02-06T17:22:18.410Z,98863.03
2019-02-06T17:25:06.061Z,98860.44
2019-02-06T17:27:49.208Z,98861.30
2019-02-06T17:30:42.852Z,98858.17
2019-02-06T17:33:16.876Z,98861.41
2019-02-06T17:35:56.980Z,98851.67
2019-02-06T17:38:56.588Z,98855.58
2019-02-06T17:41:36.173Z,98855.13
2019-02-06T17:44:17.404Z,98860.27
2019-02-06T17:46:57.371Z,98847.48
2019-02-06T17:49:40.395Z,98850.84
2019-02-06T17:52:14.395Z,98849.90
2019-02-06T17:55:20.120Z,98843.11
2019-02-06T17:57:52.590Z,98845.16
2019-02-06T18:00:48.058Z,98841.79
2019-02-06T18:03:20.164Z,98837.88
2019-02-06T18:05:53.527Z,98831.87
2019-02-06T18:08:24.562Z,98834.84
2019-02-06T18:10:58.680Z,98831.51
2019-02-06T18:13:33.076Z,98828.19
2019-02-06T18:16:04.305Z,98823.37
2019-02-06T18:18:35.423Z,98817.81
2019-02-06T18:21:06.626Z,98825.05
2019-02-06T18:23:37.815Z,98823.00
2019-02-06T18:26:09.215Z,98818.27
2019-02-06T18:28:40.485Z,98825.83
2019-02-06T18:31:11.862Z,98823.28
2019-02-06T18:33:43.067Z,98825.41
2019-02-06T18:36:14.116Z,98819.86
2019-02-06T18:38:47.091Z,98815.59
2019-02-06T18:41:20.997Z,98811.73
2019-02-06T18:44:04.544Z,98804.95
2019-02-06T18:46:35.795Z,98805.67
2019-02-06T18:49:07.230Z,98809.45
2019-02-06T18:51:38.767Z,98818.77
2019-02-06T18:54:10.302Z,98817.17
2019-02-06T18:56:41.447Z,98810.85
2019-02-06T18:59:12.738Z,98811.81
2019-02-06T19:01:45.471Z,98812.63
2019-02-06T19:04:16.491Z,98806.67
2019-02-06T19:06:47.524Z,98802.03
2019-02-06T19:09:18.751Z,98799.94
2019-02-06T19:11:49.991Z,98802.94
2019-02-06T19:14:23.061Z,98799.44
2019-02-06T19:16:54.179Z,98798.70
2019-02-06T19:19:25.834Z,98801.30
2019-02-06T19:21:56.790Z,98793.25
2019-02-06T19:24:30.420Z,98791.10
2019-02-06T19:27:02.796Z,98792.38
2019-02-06T19:29:34.020Z,98784.23
2019-02-06T19:32:05.383Z,98787.16
2019-02-06T19:34:36.436Z,98785.38
2019-02-06T19:37:07.546Z,98790.02
2019-02-06T19:39:38.771Z,98787.88
2019-02-06T19:42:10.379Z,98782.33
2019-02-06T19:44:59.302Z,98784.52
2019-02-06T19:47:32.143Z,98782.41
2019-02-06T19:50:04.323Z,98778.14
2019-02-06T19:52:40.260Z,98773.33
2019-02-06T19:55:14.019Z,98770.41
2019-02-06T19:57:45.200Z,98767.38
2019-02-06T20:00:22.140Z,98765.19
2019-02-06T20:02:53.214Z,98764.81
2019-02-06T20:05:24.624Z,98760.87
2019-02-06T20:07:55.788Z,98766.33
2019-02-06T20:10:35.445Z,98753.09
2019-02-06T20:13:12.335Z,98750.09
2019-02-06T20:15:39.877Z,98749.55
2019-02-06T20:18:11.163Z,98737.59
2019-02-06T20:20:42.112Z,98731.54
2019-02-06T20:23:13.253Z,98734.82
2019-02-06T20:25:45.471Z,98741.09
2019-02-06T20:28:16.569Z,98734.73
2019-02-06T20:30:47.726Z,98723.18
2019-02-06T20:33:19.394Z,98725.17
2019-02-06T20:35:50.558Z,98718.81
2019-02-06T20:38:21.702Z,98717.58
2019-02-06T20:40:52.931Z,98711.99
2019-02-06T20:43:23.951Z,98712.73
2019-02-06T20:45:54.939Z,98705.81
2019-02-06T20:48:26.162Z,98702.31
2019-02-06T20:50:57.304Z,98704.80
2019-02-06T20:53:28.393Z,98698.35
2019-02-06T20:55:59.506Z,98694.80
2019-02-06T20:58:30.624Z,98691.57
2019-02-06T21:01:01.779Z,98689.28
2019-02-06T21:03:32.808Z,98681.55
2019-02-06T21:06:03.990Z,98685.33
2019-02-06T21:08:35.244Z,98679.01
2019-02-06T21:11:06.472Z,98683.69
2019-02-06T21:13:37.526Z,98681.97
2019-02-06T21:16:09.223Z,98689.09
2019-02-06T21:18:40.149Z,98687.41
2019-02-06T21:21:11.206Z,98687.46
2019-02-06T21:23:42.262Z,98690.00
2019-02-06T21:26:13.531Z,98689.00
2019-02-06T21:28:44.564Z,98690.68
2019-02-06T21:31:15.734Z,98693.68
2019-02-06T21:33:46.788Z,98690.91
2019-02-06T21:36:17.894Z,98693.52
2019-02-06T21:38:49.031Z,98684.66
2019-02-06T21:41:20.097Z,98686.34
2019-02-06T21:43:51.131Z,98679.93
2019-02-06T21:46:22.247Z,98678.56
2019-02-06T21:48:53.366Z,98686.59
2019-02-06T21:51:24.402Z,98679.88
2019-02-06T21:53:55.841Z,98683.75
2019-02-06T21:56:27.189Z,98676.94
2019-02-06T21:58:58.452Z,98673.88
2019-02-06T22:01:30.279Z,98666.11
2019-02-06T22:04:01.541Z,98668.05
2019-02-06T22:06:32.527Z,98662.41
2019-02-06T22:09:04.598Z,98664.70
2019-02-06T22:11:35.751Z,98657.29
2019-02-06T22:14:06.952Z,98658.20
2019-02-06T22:16:38.086Z,98653.16
2019-02-06T22:19:09.560Z,98650.22
2019-02-06T22:21:40.849Z,98648.64
2019-02-06T22:24:11.887Z,98653.51
2019-02-06T22:26:42.943Z,98648.94
2019-02-06T22:29:14.014Z,98646.48
2019-02-06T22:31:45.177Z,98639.76
2019-02-06T22:34:16.440Z,98645.30
2019-02-06T22:36:47.540Z,98646.27
2019-02-06T22:39:18.621Z,98640.77
2019-02-06T22:41:49.764Z,98634.77
2019-02-06T22:44:20.838Z,98630.77
2019-02-06T22:46:51.847Z,98625.95
2019-02-06T22:49:22.811Z,98627.22
2019-02-06T22:51:53.882Z,98630.98
2019-02-06T22:54:25.026Z,98626.85
2019-02-06T22:56:56.689Z,98630.63
2019-02-06T22:59:27.670Z,98641.98
2019-02-06T23:01:58.767Z,98634.24
2019-02-06T23:04:30.167Z,98642.23
2019-02-06T23:07:01.283Z,98638.83
2019-02-06T23:09:32.714Z,98628.59
2019-02-06T23:12:04.097Z,98624.78
2019-02-06T23:14:35.165Z,98620.92
2019-02-06T23:17:06.322Z,98626.94
2019-02-06T23:19:37.410Z,98621.53
2019-02-06T23:22:08.512Z,98619.95
2019-02-06T23:24:39.651Z,98614.36
2019-02-06T23:27:10.719Z,98621.23
2019-02-06T23:29:41.769Z,98619.95
2019-02-06T23:32:12.949Z,98620.36
2019-02-06T23:34:43.903Z,98611.55
2019-02-06T23:37:14.949Z,98612.87
2019-02-06T23:39:45.889Z,98605.11
2019-02-06T23:42:16.975Z,98612.87
2019-02-06T23:44:48.040Z,98598.92
2019-02-06T23:47:19.109Z,98597.02
2019-02-06T23:49:50.232Z,98586.30
2019-02-06T23:52:21.491Z,98581.63
2019-02-06T23:54:52.480Z,98589.66
2019-02-06T23:57:23.618Z,98584.21
2019-02-06T23:59:54.657Z,98584.25
